sensor_id;sensor_type;location;lat;lon;timestamp;P1;durP1;ratioP1;P2;durP2;ratioP2
286;SDS011;127;48.770;9.212;2024-02-21T00:01:53;10.17;;;4.03;;
286;SDS011;127;48.770;9.212;2024-02-21T00:04:22;6.10;;;3.40;;
286;SDS011;127;48.770;9.212;2024-02-21T00:06:51;12.00;;;3.70;;
286;SDS011;127;48.770;9.212;2024-02-21T00:09:19;12.00;;;3.70;;
286;SDS011;127;48.770;9.212;2024-02-21T00:11:48;11.13;;;3.33;;
286;SDS011;127;48.770;9.212;2024-02-21T00:14:17;13.03;;;4.40;;
286;SDS011;127;48.770;9.212;2024-02-21T00:16:46;6.97;;;3.47;;
286;SDS011;127;48.770;9.212;2024-02-21T00:19:18;32.07;;;3.87;;
286;SDS011;127;48.770;9.212;2024-02-21T00:21:47;12.37;;;3.63;;
286;SDS011;127;48.770;9.212;2024-02-21T00:24:15;9.60;;;3.50;;
286;SDS011;127;48.770;9.212;2024-02-21T00:26:44;10.90;;;3.60;;
286;SDS011;127;48.770;9.212;2024-02-21T00:29:13;11.90;;;4.93;;
286;SDS011;127;48.770;9.212;2024-02-21T00:31:42;16.70;;;4.67;;
286;SDS011;127;48.770;9.212;2024-02-21T00:34:11;14.63;;;3.97;;
286;SDS011;127;48.770;9.212;2024-02-21T00:36:43;11.90;;;4.10;;
286;SDS011;127;48.770;9.212;2024-02-21T00:39:11;13.23;;;3.73;;
286;SDS011;127;48.770;9.212;2024-02-21T00:41:40;20.23;;;4.70;;
286;SDS011;127;48.770;9.212;2024-02-21T00:44:09;23.23;;;4.53;;
286;SDS011;127;48.770;9.212;2024-02-21T00:46:38;17.47;;;3.97;;
286;SDS011;127;48.770;9.212;2024-02-21T00:49:07;15.73;;;4.47;;
286;SDS011;127;48.770;9.212;2024-02-21T00:51:36;14.07;;;3.83;;
286;SDS011;127;48.770;9.212;2024-02-21T00:54:07;12.10;;;3.70;;
286;SDS011;127;48.770;9.212;2024-02-21T00:56:36;14.57;;;4.07;;
286;SDS011;127;48.770;9.212;2024-02-21T00:59:05;17.50;;;5.43;;
286;SDS011;127;48.770;9.212;2024-02-21T01:01:34;14.73;;;4.40;;
286;SDS011;127;48.770;9.212;2024-02-21T01:04:03;19.13;;;4.70;;
286;SDS011;127;48.770;9.212;2024-02-21T01:06:32;17.60;;;4.60;;
286;SDS011;127;48.770;9.212;2024-02-21T01:09:01;18.60;;;4.33;;
286;SDS011;127;48.770;9.212;2024-02-21T01:11:32;16.93;;;6.03;;
286;SDS011;127;48.770;9.212;2024-02-21T01:14:01;9.63;;;4.00;;
286;SDS011;127;48.770;9.212;2024-02-21T01:16:30;8.73;;;4.30;;
286;SDS011;127;48.770;9.212;2024-02-21T01:18:59;12.10;;;4.30;;
286;SDS011;127;48.770;9.212;2024-02-21T01:21:28;9.20;;;4.13;;
286;SDS011;127;48.770;9.212;2024-02-21T01:23:57;16.50;;;4.40;;
286;SDS011;127;48.770;9.212;2024-02-21T01:26:25;48.57;;;5.70;;
286;SDS011;127;48.770;9.212;2024-02-21T01:28:57;10.93;;;4.37;;
286;SDS011;127;48.770;9.212;2024-02-21T01:31:26;18.57;;;4.83;;
286;SDS011;127;48.770;9.212;2024-02-21T01:33:55;13.90;;;4.90;;
286;SDS011;127;48.770;9.212;2024-02-21T01:36:24;13.80;;;5.27;;
286;SDS011;127;48.770;9.212;2024-02-21T01:38:52;13.10;;;4.33;;
286;SDS011;127;48.770;9.212;2024-02-21T01:41:21;10.63;;;3.80;;
286;SDS011;127;48.770;9.212;2024-02-21T01:43:50;10.03;;;4.53;;
286;SDS011;127;48.770;9.212;2024-02-21T01:46:22;11.70;;;4.47;;
286;SDS011;127;48.770;9.212;2024-02-21T01:48:53;14.57;;;4.63;;
286;SDS011;127;48.770;9.212;2024-02-21T01:51:22;14.00;;;4.80;;
286;SDS011;127;48.770;9.212;2024-02-21T01:53:52;10.80;;;4.00;;
286;SDS011;127;48.770;9.212;2024-02-21T01:56:22;11.43;;;4.53;;
286;SDS011;127;48.770;9.212;2024-02-21T01:58:51;16.23;;;4.40;;
286;SDS011;127;48.770;9.212;2024-02-21T02:01:22;18.43;;;5.13;;
286;SDS011;127;48.770;9.212;2024-02-21T02:03:51;10.03;;;4.53;;
286;SDS011;127;48.770;9.212;2024-02-21T02:06:20;8.30;;;4.00;;
286;SDS011;127;48.770;9.212;2024-02-21T02:08:49;13.20;;;4.40;;
286;SDS011;127;48.770;9.212;2024-02-21T02:11:18;11.50;;;4.20;;
286;SDS011;127;48.770;9.212;2024-02-21T02:13:47;10.17;;;4.40;;
286;SDS011;127;48.770;9.212;2024-02-21T02:16:16;12.27;;;3.93;;
286;SDS011;127;48.770;9.212;2024-02-21T02:18:47;21.43;;;5.10;;
286;SDS011;127;48.770;9.212;2024-02-21T02:21:20;17.70;;;5.10;;
286;SDS011;127;48.770;9.212;2024-02-21T02:23:53;8.33;;;3.60;;
286;SDS011;127;48.770;9.212;2024-02-21T02:26:22;10.23;;;4.10;;
286;SDS011;127;48.770;9.212;2024-02-21T02:28:52;7.90;;;3.50;;
286;SDS011;127;48.770;9.212;2024-02-21T02:31:21;12.43;;;4.27;;
286;SDS011;127;48.770;9.212;2024-02-21T02:33:50;13.30;;;4.20;;
286;SDS011;127;48.770;9.212;2024-02-21T02:36:19;8.87;;;4.13;;
286;SDS011;127;48.770;9.212;2024-02-21T02:38:47;17.93;;;3.90;;
286;SDS011;127;48.770;9.212;2024-02-21T02:41:19;13.70;;;3.83;;
286;SDS011;127;48.770;9.212;2024-02-21T02:43:48;19.87;;;5.33;;
286;SDS011;127;48.770;9.212;2024-02-21T02:46:17;8.73;;;4.03;;
286;SDS011;127;48.770;9.212;2024-02-21T02:48:45;12.63;;;4.03;;
286;SDS011;127;48.770;9.212;2024-02-21T02:51:14;13.35;;;4.45;;
286;SDS011;127;48.770;9.212;2024-02-21T02:53:43;17.80;;;5.03;;
286;SDS011;127;48.770;9.212;2024-02-21T02:56:14;11.97;;;4.67;;
286;SDS011;127;48.770;9.212;2024-02-21T02:58:46;15.50;;;4.10;;
286;SDS011;127;48.770;9.212;2024-02-21T03:01:14;11.50;;;4.10;;
286;SDS011;127;48.770;9.212;2024-02-21T03:03:43;18.13;;;4.70;;
286;SDS011;127;48.770;9.212;2024-02-21T03:06:13;13.43;;;4.22;;
286;SDS011;127;48.770;9.212;2024-02-21T03:08:42;11.23;;;4.60;;
286;SDS011;127;48.770;9.212;2024-02-21T03:11:11;16.87;;;4.90;;
286;SDS011;127;48.770;9.212;2024-02-21T03:13:40;10.90;;;4.70;;
286;SDS011;127;48.770;9.212;2024-02-21T03:16:11;8.47;;;4.43;;
286;SDS011;127;48.770;9.212;2024-02-21T03:18:40;20.13;;;5.70;;
286;SDS011;127;48.770;9.212;2024-02-21T03:21:09;9.90;;;4.47;;
286;SDS011;127;48.770;9.212;2024-02-21T03:23:38;14.40;;;4.90;;
286;SDS011;127;48.770;9.212;2024-02-21T03:26:07;11.43;;;4.90;;
286;SDS011;127;48.770;9.212;2024-02-21T03:28:36;9.43;;;4.70;;
286;SDS011;127;48.770;9.212;2024-02-21T03:31:05;14.40;;;5.03;;
286;SDS011;127;48.770;9.212;2024-02-21T03:33:36;10.03;;;4.47;;
286;SDS011;127;48.770;9.212;2024-02-21T03:36:05;9.83;;;5.00;;
286;SDS011;127;48.770;9.212;2024-02-21T03:38:34;15.10;;;4.93;;
286;SDS011;127;48.770;9.212;2024-02-21T03:41:03;14.82;;;4.72;;
286;SDS011;127;48.770;9.212;2024-02-21T03:43:32;13.80;;;4.97;;
286;SDS011;127;48.770;9.212;2024-02-21T03:46:01;18.80;;;4.57;;
286;SDS011;127;48.770;9.212;2024-02-21T03:48:30;11.25;;;4.18;;
286;SDS011;127;48.770;9.212;2024-02-21T03:51:01;7.78;;;3.65;;
286;SDS011;127;48.770;9.212;2024-02-21T03:53:30;18.67;;;4.60;;
286;SDS011;127;48.770;9.212;2024-02-21T03:56:00;13.00;;;4.27;;
286;SDS011;127;48.770;9.212;2024-02-21T03:58:29;6.80;;;3.60;;
286;SDS011;127;48.770;9.212;2024-02-21T04:00:59;8.47;;;3.60;;
286;SDS011;127;48.770;9.212;2024-02-21T04:03:28;11.93;;;4.37;;
286;SDS011;127;48.770;9.212;2024-02-21T04:05:57;11.20;;;4.50;;
286;SDS011;127;48.770;9.212;2024-02-21T04:08:28;8.23;;;4.57;;
286;SDS011;127;48.770;9.212;2024-02-21T04:10:57;17.43;;;5.10;;
286;SDS011;127;48.770;9.212;2024-02-21T04:13:26;10.37;;;3.87;;
286;SDS011;127;48.770;9.212;2024-02-21T04:15:55;14.70;;;4.70;;
286;SDS011;127;48.770;9.212;2024-02-21T04:18:24;10.13;;;4.40;;
286;SDS011;127;48.770;9.212;2024-02-21T04:20:53;12.47;;;4.57;;
286;SDS011;127;48.770;9.212;2024-02-21T04:23:22;10.00;;;3.55;;
286;SDS011;127;48.770;9.212;2024-02-21T04:25:53;10.03;;;3.77;;
286;SDS011;127;48.770;9.212;2024-02-21T04:28:22;11.02;;;4.28;;
286;SDS011;127;48.770;9.212;2024-02-21T04:30:51;8.65;;;4.10;;
286;SDS011;127;48.770;9.212;2024-02-21T04:33:20;9.50;;;3.93;;
286;SDS011;127;48.770;9.212;2024-02-21T04:35:48;15.52;;;4.85;;
286;SDS011;127;48.770;9.212;2024-02-21T04:38:19;8.90;;;4.10;;
286;SDS011;127;48.770;9.212;2024-02-21T04:40:48;9.32;;;3.28;;
286;SDS011;127;48.770;9.212;2024-02-21T04:43:20;9.25;;;3.97;;
286;SDS011;127;48.770;9.212;2024-02-21T04:45:49;14.00;;;3.65;;
286;SDS011;127;48.770;9.212;2024-02-21T04:48:18;18.35;;;3.10;;
286;SDS011;127;48.770;9.212;2024-02-21T04:50:47;8.10;;;3.65;;
286;SDS011;127;48.770;9.212;2024-02-21T04:53:16;11.23;;;4.03;;
286;SDS011;127;48.770;9.212;2024-02-21T04:55:45;8.63;;;4.10;;
286;SDS011;127;48.770;9.212;2024-02-21T04:58:14;12.75;;;3.75;;
286;SDS011;127;48.770;9.212;2024-02-21T05:00:46;9.43;;;4.20;;
286;SDS011;127;48.770;9.212;2024-02-21T05:03:14;6.53;;;3.23;;
286;SDS011;127;48.770;9.212;2024-02-21T05:05:43;9.27;;;3.20;;
286;SDS011;127;48.770;9.212;2024-02-21T05:08:12;13.20;;;4.17;;
286;SDS011;127;48.770;9.212;2024-02-21T05:10:41;8.63;;;3.23;;
286;SDS011;127;48.770;9.212;2024-02-21T05:13:10;8.80;;;3.53;;
286;SDS011;127;48.770;9.212;2024-02-21T05:15:39;8.18;;;3.90;;
286;SDS011;127;48.770;9.212;2024-02-21T05:18:10;13.68;;;4.78;;
286;SDS011;127;48.770;9.212;2024-02-21T05:20:39;7.07;;;3.63;;
286;SDS011;127;48.770;9.212;2024-02-21T05:23:08;6.43;;;4.00;;
286;SDS011;127;48.770;9.212;2024-02-21T05:25:37;25.08;;;4.65;;
286;SDS011;127;48.770;9.212;2024-02-21T05:28:06;7.90;;;3.83;;
286;SDS011;127;48.770;9.212;2024-02-21T05:30:35;10.02;;;4.05;;
286;SDS011;127;48.770;9.212;2024-02-21T05:33:04;20.23;;;4.30;;
286;SDS011;127;48.770;9.212;2024-02-21T05:35:36;19.50;;;4.00;;
286;SDS011;127;48.770;9.212;2024-02-21T05:38:05;14.18;;;3.85;;
286;SDS011;127;48.770;9.212;2024-02-21T05:40:37;8.80;;;4.43;;
286;SDS011;127;48.770;9.212;2024-02-21T05:43:06;8.93;;;3.55;;
286;SDS011;127;48.770;9.212;2024-02-21T05:45:35;8.07;;;3.77;;
286;SDS011;127;48.770;9.212;2024-02-21T05:48:04;5.07;;;2.80;;
286;SDS011;127;48.770;9.212;2024-02-21T05:50:36;13.50;;;4.07;;
286;SDS011;127;48.770;9.212;2024-02-21T05:53:05;14.82;;;4.40;;
286;SDS011;127;48.770;9.212;2024-02-21T05:55:35;14.70;;;3.92;;
286;SDS011;127;48.770;9.212;2024-02-21T05:58:04;10.10;;;3.50;;
286;SDS011;127;48.770;9.212;2024-02-21T06:00:35;5.60;;;3.10;;
286;SDS011;127;48.770;9.212;2024-02-21T06:03:04;15.90;;;4.57;;
286;SDS011;127;48.770;9.212;2024-02-21T06:05:38;9.95;;;3.40;;
286;SDS011;127;48.770;9.212;2024-02-21T06:08:07;9.50;;;4.00;;
286;SDS011;127;48.770;9.212;2024-02-21T06:10:36;7.67;;;4.30;;
286;SDS011;127;48.770;9.212;2024-02-21T06:13:05;11.90;;;4.30;;
286;SDS011;127;48.770;9.212;2024-02-21T06:15:34;8.20;;;4.10;;
286;SDS011;127;48.770;9.212;2024-02-21T06:18:03;12.10;;;3.50;;
286;SDS011;127;48.770;9.212;2024-02-21T06:20:32;6.70;;;3.43;;
286;SDS011;127;48.770;9.212;2024-02-21T06:23:07;22.63;;;4.03;;
286;SDS011;127;48.770;9.212;2024-02-21T06:25:35;20.30;;;3.67;;
286;SDS011;127;48.770;9.212;2024-02-21T06:28:05;13.65;;;3.85;;
286;SDS011;127;48.770;9.212;2024-02-21T06:30:34;13.77;;;3.70;;
286;SDS011;127;48.770;9.212;2024-02-21T06:33:03;9.23;;;3.58;;
286;SDS011;127;48.770;9.212;2024-02-21T06:35:33;8.77;;;4.03;;
286;SDS011;127;48.770;9.212;2024-02-21T06:38:03;7.15;;;3.90;;
286;SDS011;127;48.770;9.212;2024-02-21T06:40:34;6.10;;;2.95;;
286;SDS011;127;48.770;9.212;2024-02-21T06:43:04;17.02;;;4.10;;
286;SDS011;127;48.770;9.212;2024-02-21T06:45:33;10.70;;;3.40;;
286;SDS011;127;48.770;9.212;2024-02-21T06:48:02;19.95;;;3.65;;
286;SDS011;127;48.770;9.212;2024-02-21T06:50:31;6.65;;;3.70;;
286;SDS011;127;48.770;9.212;2024-02-21T06:53:00;9.70;;;3.00;;
286;SDS011;127;48.770;9.212;2024-02-21T06:55:29;9.73;;;3.40;;
286;SDS011;127;48.770;9.212;2024-02-21T06:58:00;12.90;;;3.63;;
286;SDS011;127;48.770;9.212;2024-02-21T07:00:29;4.80;;;2.33;;
286;SDS011;127;48.770;9.212;2024-02-21T07:02:58;7.50;;;3.23;;
286;SDS011;127;48.770;9.212;2024-02-21T07:05:27;7.90;;;3.30;;
286;SDS011;127;48.770;9.212;2024-02-21T07:07:56;7.60;;;3.53;;
286;SDS011;127;48.770;9.212;2024-02-21T07:10:25;4.72;;;2.90;;
286;SDS011;127;48.770;9.212;2024-02-21T07:12:54;9.37;;;2.93;;
286;SDS011;127;48.770;9.212;2024-02-21T07:15:26;14.23;;;4.77;;
286;SDS011;127;48.770;9.212;2024-02-21T07:17:56;7.17;;;2.63;;
286;SDS011;127;48.770;9.212;2024-02-21T07:20:24;7.93;;;4.17;;
286;SDS011;127;48.770;9.212;2024-02-21T07:22:54;7.40;;;3.67;;
286;SDS011;127;48.770;9.212;2024-02-21T07:25:22;10.30;;;3.37;;
286;SDS011;127;48.770;9.212;2024-02-21T07:27:51;6.90;;;3.17;;
286;SDS011;127;48.770;9.212;2024-02-21T07:30:20;12.40;;;3.53;;
286;SDS011;127;48.770;9.212;2024-02-21T07:32:51;12.40;;;3.93;;
286;SDS011;127;48.770;9.212;2024-02-21T07:35:20;10.37;;;3.43;;
286;SDS011;127;48.770;9.212;2024-02-21T07:37:49;14.93;;;3.90;;
286;SDS011;127;48.770;9.212;2024-02-21T07:40:18;9.57;;;3.53;;
286;SDS011;127;48.770;9.212;2024-02-21T07:42:47;10.20;;;3.43;;
286;SDS011;127;48.770;9.212;2024-02-21T07:45:16;8.83;;;3.27;;
286;SDS011;127;48.770;9.212;2024-02-21T07:47:48;10.50;;;3.40;;
286;SDS011;127;48.770;9.212;2024-02-21T07:50:20;7.90;;;3.23;;
286;SDS011;127;48.770;9.212;2024-02-21T07:52:49;10.37;;;3.37;;
286;SDS011;127;48.770;9.212;2024-02-21T07:55:18;10.90;;;3.37;;
286;SDS011;127;48.770;9.212;2024-02-21T07:57:47;10.50;;;3.20;;
286;SDS011;127;48.770;9.212;2024-02-21T08:00:16;12.63;;;3.27;;
286;SDS011;127;48.770;9.212;2024-02-21T08:02:47;7.13;;;2.80;;
286;SDS011;127;48.770;9.212;2024-02-21T08:05:16;7.13;;;3.37;;
286;SDS011;127;48.770;9.212;2024-02-21T08:07:48;8.30;;;3.63;;
286;SDS011;127;48.770;9.212;2024-02-21T08:10:16;10.30;;;3.00;;
286;SDS011;127;48.770;9.212;2024-02-21T08:12:45;9.53;;;3.23;;
286;SDS011;127;48.770;9.212;2024-02-21T08:15:14;4.33;;;2.90;;
286;SDS011;127;48.770;9.212;2024-02-21T08:17:43;10.03;;;3.80;;
286;SDS011;127;48.770;9.212;2024-02-21T08:20:12;11.73;;;3.10;;
286;SDS011;127;48.770;9.212;2024-02-21T08:22:41;7.73;;;3.00;;
286;SDS011;127;48.770;9.212;2024-02-21T08:25:12;7.83;;;2.87;;
286;SDS011;127;48.770;9.212;2024-02-21T08:27:41;8.43;;;3.40;;
286;SDS011;127;48.770;9.212;2024-02-21T08:30:11;11.77;;;3.60;;
286;SDS011;127;48.770;9.212;2024-02-21T08:32:40;6.67;;;3.00;;
286;SDS011;127;48.770;9.212;2024-02-21T08:35:09;10.77;;;3.13;;
286;SDS011;127;48.770;9.212;2024-02-21T08:37:37;10.73;;;3.20;;
286;SDS011;127;48.770;9.212;2024-02-21T08:40:08;9.53;;;3.03;;
286;SDS011;127;48.770;9.212;2024-02-21T08:42:41;6.63;;;3.83;;
286;SDS011;127;48.770;9.212;2024-02-21T08:45:10;7.97;;;3.40;;
286;SDS011;127;48.770;9.212;2024-02-21T08:47:39;5.90;;;3.70;;
286;SDS011;127;48.770;9.212;2024-02-21T08:50:08;7.03;;;3.00;;
286;SDS011;127;48.770;9.212;2024-02-21T08:52:37;14.53;;;3.10;;
286;SDS011;127;48.770;9.212;2024-02-21T08:55:06;9.27;;;3.10;;
286;SDS011;127;48.770;9.212;2024-02-21T08:57:35;16.07;;;4.10;;
286;SDS011;127;48.770;9.212;2024-02-21T09:00:07;22.87;;;3.50;;
286;SDS011;127;48.770;9.212;2024-02-21T09:02:39;9.50;;;3.27;;
286;SDS011;127;48.770;9.212;2024-02-21T09:05:08;10.50;;;3.47;;
286;SDS011;127;48.770;9.212;2024-02-21T09:07:37;19.53;;;6.10;;
286;SDS011;127;48.770;9.212;2024-02-21T09:10:07;5.93;;;3.57;;
286;SDS011;127;48.770;9.212;2024-02-21T09:12:36;7.80;;;2.67;;
286;SDS011;127;48.770;9.212;2024-02-21T09:15:08;8.43;;;2.50;;
286;SDS011;127;48.770;9.212;2024-02-21T09:17:37;7.20;;;3.43;;
286;SDS011;127;48.770;9.212;2024-02-21T09:20:07;5.80;;;2.57;;
286;SDS011;127;48.770;9.212;2024-02-21T09:22:37;9.37;;;2.87;;
286;SDS011;127;48.770;9.212;2024-02-21T09:25:06;15.93;;;3.80;;
286;SDS011;127;48.770;9.212;2024-02-21T09:27:37;9.17;;;2.90;;
286;SDS011;127;48.770;9.212;2024-02-21T09:30:09;8.50;;;3.10;;
286;SDS011;127;48.770;9.212;2024-02-21T09:32:38;9.67;;;3.40;;
286;SDS011;127;48.770;9.212;2024-02-21T09:35:07;7.00;;;2.63;;
286;SDS011;127;48.770;9.212;2024-02-21T09:37:37;8.73;;;3.40;;
286;SDS011;127;48.770;9.212;2024-02-21T09:40:06;12.00;;;3.20;;
286;SDS011;127;48.770;9.212;2024-02-21T09:42:36;7.23;;;2.70;;
286;SDS011;127;48.770;9.212;2024-02-21T09:45:11;14.57;;;2.93;;
286;SDS011;127;48.770;9.212;2024-02-21T09:47:43;7.77;;;3.00;;
286;SDS011;127;48.770;9.212;2024-02-21T09:50:16;10.63;;;2.83;;
286;SDS011;127;48.770;9.212;2024-02-21T09:52:46;6.30;;;2.70;;
286;SDS011;127;48.770;9.212;2024-02-21T09:55:16;5.70;;;2.63;;
286;SDS011;127;48.770;9.212;2024-02-21T09:57:46;8.40;;;2.67;;
286;SDS011;127;48.770;9.212;2024-02-21T10:00:18;9.20;;;2.50;;
286;SDS011;127;48.770;9.212;2024-02-21T10:02:47;6.63;;;2.30;;
286;SDS011;127;48.770;9.212;2024-02-21T10:05:16;3.97;;;2.03;;
286;SDS011;127;48.770;9.212;2024-02-21T10:07:45;14.43;;;2.67;;
286;SDS011;127;48.770;9.212;2024-02-21T10:10:14;13.07;;;2.60;;
286;SDS011;127;48.770;9.212;2024-02-21T10:12:49;5.10;;;2.83;;
286;SDS011;127;48.770;9.212;2024-02-21T10:15:22;13.60;;;2.77;;
286;SDS011;127;48.770;9.212;2024-02-21T10:17:58;7.90;;;2.37;;
286;SDS011;127;48.770;9.212;2024-02-21T10:20:28;6.87;;;2.37;;
286;SDS011;127;48.770;9.212;2024-02-21T10:23:00;7.13;;;2.07;;
286;SDS011;127;48.770;9.212;2024-02-21T10:25:33;4.77;;;2.40;;
286;SDS011;127;48.770;9.212;2024-02-21T10:28:03;7.73;;;2.83;;
286;SDS011;127;48.770;9.212;2024-02-21T10:30:35;10.40;;;2.77;;
286;SDS011;127;48.770;9.212;2024-02-21T10:33:04;4.13;;;2.13;;
286;SDS011;127;48.770;9.212;2024-02-21T10:35:34;4.20;;;2.27;;
286;SDS011;127;48.770;9.212;2024-02-21T10:38:03;3.03;;;2.00;;
286;SDS011;127;48.770;9.212;2024-02-21T10:40:32;12.53;;;2.47;;
286;SDS011;127;48.770;9.212;2024-02-21T10:43:01;6.03;;;2.40;;
286;SDS011;127;48.770;9.212;2024-02-21T10:45:30;4.73;;;1.90;;
286;SDS011;127;48.770;9.212;2024-02-21T10:48:06;7.00;;;2.23;;
286;SDS011;127;48.770;9.212;2024-02-21T10:50:36;3.20;;;2.40;;
286;SDS011;127;48.770;9.212;2024-02-21T10:53:13;6.80;;;2.70;;
286;SDS011;127;48.770;9.212;2024-02-21T10:55:50;11.57;;;2.57;;
286;SDS011;127;48.770;9.212;2024-02-21T10:58:22;4.50;;;2.37;;
286;SDS011;127;48.770;9.212;2024-02-21T11:00:53;6.77;;;2.40;;
286;SDS011;127;48.770;9.212;2024-02-21T11:03:25;5.70;;;2.57;;
286;SDS011;127;48.770;9.212;2024-02-21T11:05:54;4.43;;;2.10;;
286;SDS011;127;48.770;9.212;2024-02-21T11:08:23;5.10;;;2.20;;
286;SDS011;127;48.770;9.212;2024-02-21T11:10:56;6.63;;;2.40;;
286;SDS011;127;48.770;9.212;2024-02-21T11:13:30;5.47;;;2.00;;
286;SDS011;127;48.770;9.212;2024-02-21T11:16:06;5.93;;;1.87;;
286;SDS011;127;48.770;9.212;2024-02-21T11:18:38;4.00;;;2.30;;
286;SDS011;127;48.770;9.212;2024-02-21T11:21:07;4.70;;;2.27;;
286;SDS011;127;48.770;9.212;2024-02-21T11:23:36;5.47;;;2.10;;
286;SDS011;127;48.770;9.212;2024-02-21T11:26:05;6.37;;;2.30;;
286;SDS011;127;48.770;9.212;2024-02-21T11:28:34;6.50;;;2.30;;
286;SDS011;127;48.770;9.212;2024-02-21T11:31:07;6.53;;;2.53;;
286;SDS011;127;48.770;9.212;2024-02-21T11:33:41;11.43;;;2.77;;
286;SDS011;127;48.770;9.212;2024-02-21T11:36:10;5.40;;;2.20;;
286;SDS011;127;48.770;9.212;2024-02-21T11:38:39;4.60;;;2.23;;
286;SDS011;127;48.770;9.212;2024-02-21T11:41:08;4.70;;;2.20;;
286;SDS011;127;48.770;9.212;2024-02-21T11:43:37;7.27;;;3.07;;
286;SDS011;127;48.770;9.212;2024-02-21T11:46:06;5.70;;;2.00;;
286;SDS011;127;48.770;9.212;2024-02-21T11:48:35;6.23;;;2.50;;
286;SDS011;127;48.770;9.212;2024-02-21T11:51:07;2.80;;;1.80;;
286;SDS011;127;48.770;9.212;2024-02-21T11:53:36;13.07;;;2.17;;
286;SDS011;127;48.770;9.212;2024-02-21T11:56:05;10.47;;;2.57;;
286;SDS011;127;48.770;9.212;2024-02-21T11:58:34;7.33;;;2.30;;
286;SDS011;127;48.770;9.212;2024-02-21T12:01:03;11.80;;;2.77;;
286;SDS011;127;48.770;9.212;2024-02-21T12:03:32;11.97;;;2.43;;
286;SDS011;127;48.770;9.212;2024-02-21T12:06:01;4.78;;;1.80;;
286;SDS011;127;48.770;9.212;2024-02-21T12:08:43;2.80;;;2.20;;
286;SDS011;127;48.770;9.212;2024-02-21T12:11:18;7.87;;;2.03;;
286;SDS011;127;48.770;9.212;2024-02-21T12:13:58;3.67;;;1.50;;
286;SDS011;127;48.770;9.212;2024-02-21T12:16:28;6.70;;;1.60;;
286;SDS011;127;48.770;9.212;2024-02-21T12:18:58;10.70;;;2.30;;
286;SDS011;127;48.770;9.212;2024-02-21T12:21:29;4.00;;;1.53;;
286;SDS011;127;48.770;9.212;2024-02-21T12:24:13;3.40;;;1.93;;
286;SDS011;127;48.770;9.212;2024-02-21T12:26:42;4.63;;;2.27;;
286;SDS011;127;48.770;9.212;2024-02-21T12:29:11;3.70;;;1.60;;
286;SDS011;127;48.770;9.212;2024-02-21T12:31:40;3.57;;;2.10;;
286;SDS011;127;48.770;9.212;2024-02-21T12:34:10;3.80;;;1.90;;
286;SDS011;127;48.770;9.212;2024-02-21T12:36:41;4.57;;;1.70;;
286;SDS011;127;48.770;9.212;2024-02-21T12:39:14;3.50;;;2.00;;
286;SDS011;127;48.770;9.212;2024-02-21T12:41:43;4.90;;;1.60;;
286;SDS011;127;48.770;9.212;2024-02-21T12:44:12;3.80;;;1.83;;
286;SDS011;127;48.770;9.212;2024-02-21T12:46:43;7.50;;;2.07;;
286;SDS011;127;48.770;9.212;2024-02-21T12:49:09;4.57;;;1.80;;
286;SDS011;127;48.770;9.212;2024-02-21T12:51:38;4.13;;;1.77;;
286;SDS011;127;48.770;9.212;2024-02-21T12:54:07;2.83;;;1.50;;
286;SDS011;127;48.770;9.212;2024-02-21T12:56:39;9.77;;;2.10;;
286;SDS011;127;48.770;9.212;2024-02-21T12:59:08;3.50;;;1.63;;
286;SDS011;127;48.770;9.212;2024-02-21T13:01:37;8.07;;;2.07;;
286;SDS011;127;48.770;9.212;2024-02-21T13:04:06;5.00;;;1.70;;
286;SDS011;127;48.770;9.212;2024-02-21T13:06:35;5.00;;;1.73;;
286;SDS011;127;48.770;9.212;2024-02-21T13:09:04;4.40;;;2.20;;
286;SDS011;127;48.770;9.212;2024-02-21T13:11:35;3.53;;;1.50;;
286;SDS011;127;48.770;9.212;2024-02-21T13:14:08;2.70;;;1.80;;
286;SDS011;127;48.770;9.212;2024-02-21T13:16:37;4.00;;;1.80;;
286;SDS011;127;48.770;9.212;2024-02-21T13:19:07;2.80;;;1.80;;
286;SDS011;127;48.770;9.212;2024-02-21T13:21:36;4.50;;;1.80;;
286;SDS011;127;48.770;9.212;2024-02-21T13:24:05;1.93;;;1.30;;
286;SDS011;127;48.770;9.212;2024-02-21T13:26:33;3.30;;;1.57;;
286;SDS011;127;48.770;9.212;2024-02-21T13:29:02;7.10;;;1.87;;
286;SDS011;127;48.770;9.212;2024-02-21T13:31:34;7.50;;;3.00;;
286;SDS011;127;48.770;9.212;2024-02-21T13:34:03;6.33;;;1.77;;
286;SDS011;127;48.770;9.212;2024-02-21T13:36:33;5.30;;;1.83;;
286;SDS011;127;48.770;9.212;2024-02-21T13:39:02;5.83;;;1.70;;
286;SDS011;127;48.770;9.212;2024-02-21T13:41:33;3.97;;;1.40;;
286;SDS011;127;48.770;9.212;2024-02-21T13:44:02;6.40;;;1.67;;
286;SDS011;127;48.770;9.212;2024-02-21T13:46:31;7.03;;;1.60;;
286;SDS011;127;48.770;9.212;2024-02-21T13:49:04;3.73;;;1.50;;
286;SDS011;127;48.770;9.212;2024-02-21T13:51:34;3.63;;;1.87;;
286;SDS011;127;48.770;9.212;2024-02-21T13:54:05;3.47;;;1.70;;
286;SDS011;127;48.770;9.212;2024-02-21T13:56:36;5.60;;;1.63;;
286;SDS011;127;48.770;9.212;2024-02-21T13:59:05;3.33;;;1.63;;
286;SDS011;127;48.770;9.212;2024-02-21T14:01:34;5.00;;;1.40;;
286;SDS011;127;48.770;9.212;2024-02-21T14:04:06;3.63;;;1.73;;
286;SDS011;127;48.770;9.212;2024-02-21T14:06:35;7.13;;;1.70;;
286;SDS011;127;48.770;9.212;2024-02-21T14:09:08;2.47;;;1.60;;
286;SDS011;127;48.770;9.212;2024-02-21T14:11:36;5.37;;;1.80;;
286;SDS011;127;48.770;9.212;2024-02-21T14:14:06;5.10;;;1.90;;
286;SDS011;127;48.770;9.212;2024-02-21T14:16:35;4.27;;;2.17;;
286;SDS011;127;48.770;9.212;2024-02-21T14:19:06;3.67;;;1.97;;
286;SDS011;127;48.770;9.212;2024-02-21T14:21:36;7.80;;;1.50;;
286;SDS011;127;48.770;9.212;2024-02-21T14:24:05;2.40;;;1.40;;
286;SDS011;127;48.770;9.212;2024-02-21T14:26:35;3.83;;;1.80;;
286;SDS011;127;48.770;9.212;2024-02-21T14:29:06;2.07;;;1.67;;
286;SDS011;127;48.770;9.212;2024-02-21T14:31:35;4.40;;;1.50;;
286;SDS011;127;48.770;9.212;2024-02-21T14:34:06;2.10;;;1.37;;
286;SDS011;127;48.770;9.212;2024-02-21T14:36:35;2.80;;;1.53;;
286;SDS011;127;48.770;9.212;2024-02-21T14:39:05;2.13;;;1.53;;
286;SDS011;127;48.770;9.212;2024-02-21T14:41:35;3.70;;;1.63;;
286;SDS011;127;48.770;9.212;2024-02-21T14:44:04;4.27;;;1.73;;
286;SDS011;127;48.770;9.212;2024-02-21T14:46:35;3.07;;;2.10;;
286;SDS011;127;48.770;9.212;2024-02-21T14:49:04;2.63;;;1.57;;
286;SDS011;127;48.770;9.212;2024-02-21T14:51:35;3.87;;;1.67;;
286;SDS011;127;48.770;9.212;2024-02-21T14:54:04;8.83;;;1.97;;
286;SDS011;127;48.770;9.212;2024-02-21T14:56:33;2.10;;;1.70;;
286;SDS011;127;48.770;9.212;2024-02-21T14:59:02;3.70;;;1.70;;
286;SDS011;127;48.770;9.212;2024-02-21T15:01:35;3.13;;;1.50;;
286;SDS011;127;48.770;9.212;2024-02-21T15:04:06;7.30;;;2.10;;
286;SDS011;127;48.770;9.212;2024-02-21T15:06:37;2.10;;;1.23;;
286;SDS011;127;48.770;9.212;2024-02-21T15:09:06;2.83;;;1.50;;
286;SDS011;127;48.770;9.212;2024-02-21T15:11:35;3.07;;;1.93;;
286;SDS011;127;48.770;9.212;2024-02-21T15:14:04;1.73;;;1.47;;
286;SDS011;127;48.770;9.212;2024-02-21T15:16:33;4.37;;;2.57;;
286;SDS011;127;48.770;9.212;2024-02-21T15:19:02;4.30;;;1.77;;
286;SDS011;127;48.770;9.212;2024-02-21T15:21:31;10.43;;;2.00;;
286;SDS011;127;48.770;9.212;2024-02-21T15:24:03;2.73;;;1.50;;
286;SDS011;127;48.770;9.212;2024-02-21T15:26:32;7.03;;;2.00;;
286;SDS011;127;48.770;9.212;2024-02-21T15:29:01;3.13;;;2.10;;
286;SDS011;127;48.770;9.212;2024-02-21T15:31:30;2.90;;;1.60;;
286;SDS011;127;48.770;9.212;2024-02-21T15:33:59;5.07;;;2.07;;
286;SDS011;127;48.770;9.212;2024-02-21T15:36:28;4.60;;;1.67;;
286;SDS011;127;48.770;9.212;2024-02-21T15:38:57;7.20;;;1.90;;
286;SDS011;127;48.770;9.212;2024-02-21T15:41:30;4.50;;;2.10;;
286;SDS011;127;48.770;9.212;2024-02-21T15:44:00;5.73;;;2.00;;
286;SDS011;127;48.770;9.212;2024-02-21T15:46:29;4.03;;;2.50;;
286;SDS011;127;48.770;9.212;2024-02-21T15:48:59;3.50;;;1.87;;
286;SDS011;127;48.770;9.212;2024-02-21T15:51:28;2.87;;;1.90;;
286;SDS011;127;48.770;9.212;2024-02-21T15:53:58;6.53;;;1.60;;
286;SDS011;127;48.770;9.212;2024-02-21T15:56:30;2.43;;;1.87;;